sensor_id;sensor_type;location;lat;lon;timestamp;pressure;altitude;pressure_sealevel;temperature;humidity
42415;BME280;28058;46.344;17.786;2023-05-02T00:02:16;118336.50;;;-144.97;100.00
42415;BME280;28058;46.344;17.786;2023-05-02T00:04:43;118336.50;;;-144.97;100.00
42415;BME280;28058;46.344;17.786;2023-05-02T00:07:10;118336.50;;;-144.97;100.00
42415;BME280;28058;46.344;17.786;2023-05-02T00:09:37;118336.50;;;-144.97;100.00
42415;BME280;28058;46.344;17.786;2023-05-02T00:12:04;118336.50;;;-144.97;100.00
42415;BME280;28058;46.344;17.786;2023-05-02T00:14:31;118336.50;;;-144.97;100.00
42415;BME280;28058;46.344;17.786;2023-05-02T00:16:58;118336.50;;;-144.97;100.00
42415;BME280;28058;46.344;17.786;2023-05-02T00:19:25;118336.50;;;-144.97;100.00
42415;BME280;28058;46.344;17.786;2023-05-02T00:21:52;118336.50;;;-144.97;100.00
42415;BME280;28058;46.344;17.786;2023-05-02T00:24:19;118336.50;;;-144.97;100.00
42415;BME280;28058;46.344;17.786;2023-05-02T00:26:47;118336.50;;;-144.97;100.00
42415;BME280;28058;46.344;17.786;2023-05-02T00:29:13;118336.50;;;-144.97;100.00
42415;BME280;28058;46.344;17.786;2023-05-02T00:31:41;118336.50;;;-144.97;100.00
42415;BME280;28058;46.344;17.786;2023-05-02T00:34:08;118336.50;;;-144.97;100.00
42415;BME280;28058;46.344;17.786;2023-05-02T00:36:35;118336.50;;;-144.97;100.00
42415;BME280;28058;46.344;17.786;2023-05-02T00:39:02;118336.50;;;-144.97;100.00
42415;BME280;28058;46.344;17.786;2023-05-02T00:41:29;118336.50;;;-144.97;100.00
42415;BME280;28058;46.344;17.786;2023-05-02T00:43:57;118336.50;;;-144.97;100.00
42415;BME280;28058;46.344;17.786;2023-05-02T00:46:24;118336.50;;;-144.97;100.00
42415;BME280;28058;46.344;17.786;2023-05-02T00:48:52;118336.50;;;-144.97;100.00
42415;BME280;28058;46.344;17.786;2023-05-02T00:51:19;118336.50;;;-144.97;100.00
42415;BME280;28058;46.344;17.786;2023-05-02T00:53:45;118336.50;;;-144.97;100.00
42415;BME280;28058;46.344;17.786;2023-05-02T00:56:13;118336.50;;;-144.97;100.00
42415;BME280;28058;46.344;17.786;2023-05-02T00:58:40;118336.50;;;-144.97;100.00
42415;BME280;28058;46.344;17.786;2023-05-02T01:01:15;118336.50;;;-144.97;100.00
42415;BME280;28058;46.344;17.786;2023-05-02T01:10:22;118336.50;;;-144.97;100.00
42415;BME280;28058;46.344;17.786;2023-05-02T01:13:02;118336.50;;;-144.97;100.00
42415;BME280;28058;46.344;17.786;2023-05-02T01:15:30;118336.50;;;-144.97;100.00
42415;BME280;28058;46.344;17.786;2023-05-02T01:18:00;118336.50;;;-144.97;100.00
42415;BME280;28058;46.344;17.786;2023-05-02T01:20:29;118336.50;;;-144.97;100.00
42415;BME280;28058;46.344;17.786;2023-05-02T01:23:02;118336.50;;;-144.97;100.00
42415;BME280;28058;46.344;17.786;2023-05-02T01:26:26;118336.50;;;-144.97;100.00
42415;BME280;28058;46.344;17.786;2023-05-02T01:29:13;118336.50;;;-144.97;100.00
42415;BME280;28058;46.344;17.786;2023-05-02T01:31:22;118336.50;;;-144.97;100.00
42415;BME280;28058;46.344;17.786;2023-05-02T01:33:51;118336.50;;;-144.97;100.00
42415;BME280;28058;46.344;17.786;2023-05-02T01:36:20;118336.50;;;-144.97;100.00
42415;BME280;28058;46.344;17.786;2023-05-02T01:38:49;118336.50;;;-144.97;100.00
42415;BME280;28058;46.344;17.786;2023-05-02T01:41:18;118336.50;;;-144.97;100.00
42415;BME280;28058;46.344;17.786;2023-05-02T01:43:46;118336.50;;;-144.97;100.00
42415;BME280;28058;46.344;17.786;2023-05-02T01:46:14;118336.50;;;-144.97;100.00
42415;BME280;28058;46.344;17.786;2023-05-02T01:48:43;118336.50;;;-144.97;100.00
42415;BME280;28058;46.344;17.786;2023-05-02T01:51:14;118336.50;;;-144.97;100.00
42415;BME280;28058;46.344;17.786;2023-05-02T01:53:45;118336.50;;;-144.97;100.00
42415;BME280;28058;46.344;17.786;2023-05-02T01:56:17;118336.50;;;-144.97;100.00
42415;BME280;28058;46.344;17.786;2023-05-02T01:58:46;118336.50;;;-144.97;100.00
42415;BME280;28058;46.344;17.786;2023-05-02T02:01:15;118336.50;;;-144.97;100.00
42415;BME280;28058;46.344;17.786;2023-05-02T02:03:44;118336.50;;;-144.97;100.00
42415;BME280;28058;46.344;17.786;2023-05-02T02:06:13;118336.50;;;-144.97;100.00
42415;BME280;28058;46.344;17.786;2023-05-02T02:08:41;118336.50;;;-144.97;100.00
42415;BME280;28058;46.344;17.786;2023-05-02T02:11:12;118336.50;;;-144.97;100.00
42415;BME280;28058;46.344;17.786;2023-05-02T02:13:48;118336.50;;;-144.97;100.00
42415;BME280;28058;46.344;17.786;2023-05-02T02:16:29;118336.50;;;-144.97;100.00
42415;BME280;28058;46.344;17.786;2023-05-02T02:18:58;118336.50;;;-144.97;100.00
42415;BME280;28058;46.344;17.786;2023-05-02T02:21:31;118336.50;;;-144.97;100.00
42415;BME280;28058;46.344;17.786;2023-05-02T02:24:01;118336.50;;;-144.97;100.00
42415;BME280;28058;46.344;17.786;2023-05-02T02:26:30;118336.50;;;-144.97;100.00
42415;BME280;28058;46.344;17.786;2023-05-02T02:28:57;118336.50;;;-144.97;100.00
42415;BME280;28058;46.344;17.786;2023-05-02T02:31:35;118336.50;;;-144.97;100.00
42415;BME280;28058;46.344;17.786;2023-05-02T02:34:05;118336.50;;;-144.97;100.00
42415;BME280;28058;46.344;17.786;2023-05-02T02:36:43;118336.50;;;-144.97;100.00
42415;BME280;28058;46.344;17.786;2023-05-02T02:42:14;118336.50;;;-144.97;100.00
42415;BME280;28058;46.344;17.786;2023-05-02T02:50:22;118336.50;;;-144.97;100.00
42415;BME280;28058;46.344;17.786;2023-05-02T02:55:40;118336.50;;;-144.97;100.00
42415;BME280;28058;46.344;17.786;2023-05-02T03:00:58;118336.50;;;-144.97;100.00
42415;BME280;28058;46.344;17.786;2023-05-02T03:03:29;118336.50;;;-144.97;100.00
42415;BME280;28058;46.344;17.786;2023-05-02T03:05:58;118336.50;;;-144.97;100.00
42415;BME280;28058;46.344;17.786;2023-05-02T03:08:26;118336.50;;;-144.97;100.00
42415;BME280;28058;46.344;17.786;2023-05-02T03:10:53;118336.50;;;-144.97;100.00
42415;BME280;28058;46.344;17.786;2023-05-02T03:13:20;118336.50;;;-144.97;100.00
42415;BME280;28058;46.344;17.786;2023-05-02T03:18:17;118336.50;;;-144.97;100.00
42415;BME280;28058;46.344;17.786;2023-05-02T03:20:44;118336.50;;;-144.97;100.00
42415;BME280;28058;46.344;17.786;2023-05-02T03:23:11;118336.50;;;-144.97;100.00
42415;BME280;28058;46.344;17.786;2023-05-02T03:25:38;118336.50;;;-144.97;100.00
42415;BME280;28058;46.344;17.786;2023-05-02T03:28:05;118336.50;;;-144.97;100.00
42415;BME280;28058;46.344;17.786;2023-05-02T03:30:32;118336.50;;;-144.97;100.00
42415;BME280;28058;46.344;17.786;2023-05-02T03:32:59;118336.50;;;-144.97;100.00
42415;BME280;28058;46.344;17.786;2023-05-02T03:35:27;118336.50;;;-144.97;100.00
42415;BME280;28058;46.344;17.786;2023-05-02T03:37:54;118336.50;;;-144.97;100.00
42415;BME280;28058;46.344;17.786;2023-05-02T03:40:21;118336.50;;;-144.97;100.00
42415;BME280;28058;46.344;17.786;2023-05-02T03:42:48;118336.50;;;-144.97;100.00
42415;BME280;28058;46.344;17.786;2023-05-02T03:45:15;118336.50;;;-144.97;100.00
42415;BME280;28058;46.344;17.786;2023-05-02T03:47:42;118336.50;;;-144.97;100.00
42415;BME280;28058;46.344;17.786;2023-05-02T03:50:09;118336.50;;;-144.97;100.00
42415;BME280;28058;46.344;17.786;2023-05-02T03:52:36;118336.50;;;-144.97;100.00
42415;BME280;28058;46.344;17.786;2023-05-02T03:55:03;118336.50;;;-144.97;100.00
42415;BME280;28058;46.344;17.786;2023-05-02T03:57:33;118336.50;;;-144.97;100.00
42415;BME280;28058;46.344;17.786;2023-05-02T04:00:00;118336.50;;;-144.97;100.00
42415;BME280;28058;46.344;17.786;2023-05-02T04:02:28;118336.50;;;-144.97;100.00
42415;BME280;28058;46.344;17.786;2023-05-02T04:04:56;118336.50;;;-144.97;100.00
42415;BME280;28058;46.344;17.786;2023-05-02T04:07:23;118336.50;;;-144.97;100.00
42415;BME280;28058;46.344;17.786;2023-05-02T04:09:51;118336.50;;;-144.97;100.00
42415;BME280;28058;46.344;17.786;2023-05-02T04:12:19;118336.50;;;-144.97;100.00
42415;BME280;28058;46.344;17.786;2023-05-02T04:14:46;118336.50;;;-144.97;100.00
42415;BME280;28058;46.344;17.786;2023-05-02T04:17:13;118336.50;;;-144.97;100.00
42415;BME280;28058;46.344;17.786;2023-05-02T04:19:43;118336.50;;;-144.97;100.00
42415;BME280;28058;46.344;17.786;2023-05-02T04:22:10;118336.50;;;-144.97;100.00
42415;BME280;28058;46.344;17.786;2023-05-02T04:24:38;118336.50;;;-144.97;100.00
42415;BME280;28058;46.344;17.786;2023-05-02T04:27:05;118336.50;;;-144.97;100.00
42415;BME280;28058;46.344;17.786;2023-05-02T04:29:32;118336.50;;;-144.97;100.00
42415;BME280;28058;46.344;17.786;2023-05-02T04:31:59;118336.50;;;-144.97;100.00
42415;BME280;28058;46.344;17.786;2023-05-02T04:34:26;118336.50;;;-144.97;100.00
42415;BME280;28058;46.344;17.786;2023-05-02T04:36:54;118336.50;;;-144.97;100.00
42415;BME280;28058;46.344;17.786;2023-05-02T04:39:21;118336.50;;;-144.97;100.00
42415;BME280;28058;46.344;17.786;2023-05-02T04:41:48;118336.50;;;-144.97;100.00
42415;BME280;28058;46.344;17.786;2023-05-02T04:44:15;118336.50;;;-144.97;100.00
42415;BME280;28058;46.344;17.786;2023-05-02T04:46:42;118336.50;;;-144.97;100.00
42415;BME280;28058;46.344;17.786;2023-05-02T04:49:10;118336.50;;;-144.97;100.00
42415;BME280;28058;46.344;17.786;2023-05-02T04:51:37;118336.50;;;-144.97;100.00
42415;BME280;28058;46.344;17.786;2023-05-02T04:54:04;118336.50;;;-144.97;100.00
42415;BME280;28058;46.344;17.786;2023-05-02T04:56:31;118336.50;;;-144.97;100.00
42415;BME280;28058;46.344;17.786;2023-05-02T04:58:58;118336.50;;;-144.97;100.00
42415;BME280;28058;46.344;17.786;2023-05-02T05:01:25;118336.50;;;-144.97;100.00
42415;BME280;28058;46.344;17.786;2023-05-02T05:03:54;118336.50;;;-144.97;100.00
42415;BME280;28058;46.344;17.786;2023-05-02T05:06:21;118336.50;;;-144.97;100.00
42415;BME280;28058;46.344;17.786;2023-05-02T05:08:48;118336.50;;;-144.97;100.00
42415;BME280;28058;46.344;17.786;2023-05-02T05:11:15;118336.50;;;-144.97;100.00
42415;BME280;28058;46.344;17.786;2023-05-02T05:13:42;118336.50;;;-144.97;100.00
42415;BME280;28058;46.344;17.786;2023-05-02T05:16:09;118336.50;;;-144.97;100.00
42415;BME280;28058;46.344;17.786;2023-05-02T05:18:36;118336.50;;;-144.97;100.00
42415;BME280;28058;46.344;17.786;2023-05-02T05:21:07;118336.50;;;-144.97;100.00
42415;BME280;28058;46.344;17.786;2023-05-02T05:23:35;118336.50;;;-144.97;100.00
42415;BME280;28058;46.344;17.786;2023-05-02T05:26:13;118336.50;;;-144.97;100.00
42415;BME280;28058;46.344;17.786;2023-05-02T05:28:41;118336.50;;;-144.97;100.00
42415;BME280;28058;46.344;17.786;2023-05-02T05:31:10;118336.50;;;-144.97;100.00
42415;BME280;28058;46.344;17.786;2023-05-02T05:33:42;118336.50;;;-144.97;100.00
42415;BME280;28058;46.344;17.786;2023-05-02T05:36:11;118336.50;;;-144.97;100.00
42415;BME280;28058;46.344;17.786;2023-05-02T05:38:38;118336.50;;;-144.97;100.00
42415;BME280;28058;46.344;17.786;2023-05-02T05:41:06;118336.50;;;-144.97;100.00
42415;BME280;28058;46.344;17.786;2023-05-02T05:43:34;118336.50;;;-144.97;100.00
42415;BME280;28058;46.344;17.786;2023-05-02T05:46:03;118336.50;;;-144.97;100.00
42415;BME280;28058;46.344;17.786;2023-05-02T05:48:30;118336.50;;;-144.97;100.00
42415;BME280;28058;46.344;17.786;2023-05-02T05:50:57;118336.50;;;-144.97;100.00
42415;BME280;28058;46.344;17.786;2023-05-02T05:53:24;118336.50;;;-144.97;100.00
42415;BME280;28058;46.344;17.786;2023-05-02T05:55:51;118336.50;;;-144.97;100.00
42415;BME280;28058;46.344;17.786;2023-05-02T05:58:18;118336.50;;;-144.97;100.00
42415;BME280;28058;46.344;17.786;2023-05-02T06:00:45;118336.50;;;-144.97;100.00
42415;BME280;28058;46.344;17.786;2023-05-02T06:03:12;118336.50;;;-144.97;100.00
42415;BME280;28058;46.344;17.786;2023-05-02T06:05:39;118336.50;;;-144.97;100.00
42415;BME280;28058;46.344;17.786;2023-05-02T06:08:06;118336.50;;;-144.97;100.00
42415;BME280;28058;46.344;17.786;2023-05-02T06:10:33;118336.50;;;-144.97;100.00
42415;BME280;28058;46.344;17.786;2023-05-02T06:13:00;118336.50;;;-144.97;100.00
42415;BME280;28058;46.344;17.786;2023-05-02T06:15:27;118336.50;;;-144.97;100.00
42415;BME280;28058;46.344;17.786;2023-05-02T06:17:54;118336.50;;;-144.97;100.00
42415;BME280;28058;46.344;17.786;2023-05-02T06:20:21;118336.50;;;-144.97;100.00
42415;BME280;28058;46.344;17.786;2023-05-02T06:22:48;118336.50;;;-144.97;100.00
42415;BME280;28058;46.344;17.786;2023-05-02T06:25:15;118336.50;;;-144.97;99.55
42415;BME280;28058;46.344;17.786;2023-05-02T06:27:43;118336.50;;;-144.97;97.80
42415;BME280;28058;46.344;17.786;2023-05-02T06:30:10;118336.50;;;-144.97;98.22
42415;BME280;28058;46.344;17.786;2023-05-02T06:32:37;118336.50;;;-144.97;99.02
42415;BME280;28058;46.344;17.786;2023-05-02T06:35:04;118336.50;;;-144.97;99.35
42415;BME280;28058;46.344;17.786;2023-05-02T06:37:33;118336.50;;;-144.97;100.00
42415;BME280;28058;46.344;17.786;2023-05-02T06:40:01;118336.50;;;-144.97;100.00
42415;BME280;28058;46.344;17.786;2023-05-02T06:42:29;118336.50;;;-144.97;97.46
42415;BME280;28058;46.344;17.786;2023-05-02T06:44:56;118336.50;;;-144.97;96.51
42415;BME280;28058;46.344;17.786;2023-05-02T06:47:23;118336.50;;;-144.97;95.07
42415;BME280;28058;46.344;17.786;2023-05-02T06:49:51;118336.50;;;-144.97;93.26
42415;BME280;28058;46.344;17.786;2023-05-02T06:52:18;118336.50;;;-144.97;89.92
42415;BME280;28058;46.344;17.786;2023-05-02T06:54:45;118336.50;;;-144.97;89.67
42415;BME280;28058;46.344;17.786;2023-05-02T06:57:12;118336.50;;;-144.97;89.89
42415;BME280;28058;46.344;17.786;2023-05-02T06:59:39;118336.50;;;-144.97;88.46
42415;BME280;28058;46.344;17.786;2023-05-02T07:02:06;118336.50;;;-144.97;89.23
42415;BME280;28058;46.344;17.786;2023-05-02T07:04:33;118336.50;;;-144.97;89.04
42415;BME280;28058;46.344;17.786;2023-05-02T07:07:00;118336.50;;;-144.97;87.82
42415;BME280;28058;46.344;17.786;2023-05-02T07:09:27;118336.50;;;-144.97;87.22
42415;BME280;28058;46.344;17.786;2023-05-02T07:11:54;118336.50;;;-144.97;90.05
42415;BME280;28058;46.344;17.786;2023-05-02T07:14:21;118336.50;;;-144.97;89.69
42415;BME280;28058;46.344;17.786;2023-05-02T07:16:48;118336.50;;;-144.97;88.74
42415;BME280;28058;46.344;17.786;2023-05-02T07:19:15;118336.50;;;-144.97;89.32
42415;BME280;28058;46.344;17.786;2023-05-02T07:21:43;118336.50;;;-144.97;88.91
42415;BME280;28058;46.344;17.786;2023-05-02T07:24:10;118336.50;;;-144.97;89.78
42415;BME280;28058;46.344;17.786;2023-05-02T07:26:37;118336.50;;;-144.97;88.35
42415;BME280;28058;46.344;17.786;2023-05-02T07:29:04;118336.50;;;-144.97;86.73
42415;BME280;28058;46.344;17.786;2023-05-02T07:31:32;118336.50;;;-144.97;85.26
42415;BME280;28058;46.344;17.786;2023-05-02T07:33:59;118336.50;;;-144.97;84.51
42415;BME280;28058;46.344;17.786;2023-05-02T07:36:26;118336.50;;;-144.97;83.79
42415;BME280;28058;46.344;17.786;2023-05-02T07:38:53;118336.50;;;-144.97;83.64
42415;BME280;28058;46.344;17.786;2023-05-02T07:41:20;118336.50;;;-144.97;82.19
42415;BME280;28058;46.344;17.786;2023-05-02T07:43:47;118336.50;;;-144.97;78.67
42415;BME280;28058;46.344;17.786;2023-05-02T07:46:15;118336.50;;;-144.97;79.51
42415;BME280;28058;46.344;17.786;2023-05-02T07:48:42;118336.50;;;-144.97;77.50
42415;BME280;28058;46.344;17.786;2023-05-02T07:51:09;118336.50;;;-144.97;78.00
42415;BME280;28058;46.344;17.786;2023-05-02T07:53:36;118336.50;;;-144.97;78.54
42415;BME280;28058;46.344;17.786;2023-05-02T07:56:04;118336.50;;;-144.97;77.21
42415;BME280;28058;46.344;17.786;2023-05-02T07:58:34;118336.50;;;-144.97;77.61
42415;BME280;28058;46.344;17.786;2023-05-02T08:01:02;118336.50;;;-144.97;76.62
42415;BME280;28058;46.344;17.786;2023-05-02T08:03:29;118336.50;;;-144.97;74.28
42415;BME280;28058;46.344;17.786;2023-05-02T08:05:57;118336.50;;;-144.97;73.23
42415;BME280;28058;46.344;17.786;2023-05-02T08:08:24;118336.50;;;-144.97;72.19
42415;BME280;28058;46.344;17.786;2023-05-02T08:10:51;118336.50;;;-144.97;71.61
42415;BME280;28058;46.344;17.786;2023-05-02T08:13:18;118336.50;;;-144.97;71.46
42415;BME280;28058;46.344;17.786;2023-05-02T08:15:45;118336.50;;;-144.97;73.23
42415;BME280;28058;46.344;17.786;2023-05-02T08:18:12;118336.50;;;-144.97;73.64
42415;BME280;28058;46.344;17.786;2023-05-02T08:20:39;118336.50;;;-144.97;70.67
42415;BME280;28058;46.344;17.786;2023-05-02T08:23:06;118336.50;;;-144.97;70.13
42415;BME280;28058;46.344;17.786;2023-05-02T08:25:33;118336.50;;;-144.97;71.47
42415;BME280;28058;46.344;17.786;2023-05-02T08:28:00;118336.50;;;-144.97;71.76
42415;BME280;28058;46.344;17.786;2023-05-02T08:30:27;118336.50;;;-144.97;68.80
42415;BME280;28058;46.344;17.786;2023-05-02T08:32:54;118336.50;;;-144.97;68.60
42415;BME280;28058;46.344;17.786;2023-05-02T08:35:21;118336.50;;;-144.97;69.21
42415;BME280;28058;46.344;17.786;2023-05-02T08:37:48;118336.50;;;-144.97;66.21
42415;BME280;28058;46.344;17.786;2023-05-02T08:40:16;118336.50;;;-144.97;69.78
42415;BME280;28058;46.344;17.786;2023-05-02T08:42:59;118336.50;;;-144.97;68.46
42415;BME280;28058;46.344;17.786;2023-05-02T08:45:30;118336.50;;;-144.97;66.82
42415;BME280;28058;46.344;17.786;2023-05-02T08:48:08;118336.50;;;-144.97;61.54
42415;BME280;28058;46.344;17.786;2023-05-02T08:50:38;118336.50;;;-144.97;59.14
42415;BME280;28058;46.344;17.786;2023-05-02T08:53:06;118336.50;;;-144.97;58.25
42415;BME280;28058;46.344;17.786;2023-05-02T08:55:36;118336.50;;;-144.97;56.62
42415;BME280;28058;46.344;17.786;2023-05-02T08:58:06;118336.50;;;-144.97;55.20
42415;BME280;28058;46.344;17.786;2023-05-02T09:00:38;118336.50;;;-144.97;53.37
42415;BME280;28058;46.344;17.786;2023-05-02T09:03:34;118336.50;;;-144.97;51.32
42415;BME280;28058;46.344;17.786;2023-05-02T09:06:04;118336.50;;;-144.97;51.20
42415;BME280;28058;46.344;17.786;2023-05-02T09:08:33;118336.50;;;-144.97;50.51
42415;BME280;28058;46.344;17.786;2023-05-02T09:11:01;118336.50;;;-144.97;49.72
42415;BME280;28058;46.344;17.786;2023-05-02T09:13:43;118336.50;;;-144.97;49.47
42415;BME280;28058;46.344;17.786;2023-05-02T09:16:17;118336.50;;;-144.97;49.92
42415;BME280;28058;46.344;17.786;2023-05-02T09:19:04;118336.50;;;-144.97;52.53
42415;BME280;28058;46.344;17.786;2023-05-02T09:21:36;118336.50;;;-144.97;50.96
42415;BME280;28058;46.344;17.786;2023-05-02T09:24:16;118336.50;;;-144.97;50.17
42415;BME280;28058;46.344;17.786;2023-05-02T09:27:04;118336.50;;;-144.97;47.91
42415;BME280;28058;46.344;17.786;2023-05-02T09:29:32;118336.50;;;-144.97;46.38
42415;BME280;28058;46.344;17.786;2023-05-02T09:32:05;118336.50;;;-144.97;46.66
42415;BME280;28058;46.344;17.786;2023-05-02T09:34:32;118336.50;;;-144.97;47.12
42415;BME280;28058;46.344;17.786;2023-05-02T09:36:59;118336.50;;;-144.97;46.68
42415;BME280;28058;46.344;17.786;2023-05-02T09:39:28;118336.50;;;-144.97;45.68
42415;BME280;28058;46.344;17.786;2023-05-02T09:41:56;118336.50;;;-144.97;47.59
42415;BME280;28058;46.344;17.786;2023-05-02T09:44:25;118336.50;;;-144.97;47.04
42415;BME280;28058;46.344;17.786;2023-05-02T09:46:55;118336.50;;;-144.97;47.15
42415;BME280;28058;46.344;17.786;2023-05-02T09:49:44;118336.50;;;-144.97;47.84
42415;BME280;28058;46.344;17.786;2023-05-02T09:52:14;118336.50;;;-144.97;50.23
42415;BME280;28058;46.344;17.786;2023-05-02T09:54:41;118336.50;;;-144.97;50.38
42415;BME280;28058;46.344;17.786;2023-05-02T09:57:08;118336.50;;;-144.97;47.95
42415;BME280;28058;46.344;17.786;2023-05-02T09:59:39;118336.50;;;-144.97;48.09
42415;BME280;28058;46.344;17.786;2023-05-02T10:02:07;118336.50;;;-144.97;45.88
42415;BME280;28058;46.344;17.786;2023-05-02T10:04:37;118336.50;;;-144.97;44.90
42415;BME280;28058;46.344;17.786;2023-05-02T10:07:06;118336.50;;;-144.97;47.98
42415;BME280;28058;46.344;17.786;2023-05-02T10:09:40;118336.50;;;-144.97;47.63
42415;BME280;28058;46.344;17.786;2023-05-02T10:12:08;118336.50;;;-144.97;48.59
42415;BME280;28058;46.344;17.786;2023-05-02T10:14:43;118336.50;;;-144.97;48.48
42415;BME280;28058;46.344;17.786;2023-05-02T10:17:21;118336.50;;;-144.97;48.72
42415;BME280;28058;46.344;17.786;2023-05-02T10:22:22;118336.50;;;-144.97;48.80
42415;BME280;28058;46.344;17.786;2023-05-02T10:24:49;118336.50;;;-144.97;44.64
42415;BME280;28058;46.344;17.786;2023-05-02T10:27:16;118336.50;;;-144.97;44.96
42415;BME280;28058;46.344;17.786;2023-05-02T10:29:45;118336.50;;;-144.97;45.32
42415;BME280;28058;46.344;17.786;2023-05-02T10:32:13;118336.50;;;-144.97;44.96
42415;BME280;28058;46.344;17.786;2023-05-02T10:34:41;118336.50;;;-144.97;44.78
42415;BME280;28058;46.344;17.786;2023-05-02T10:37:08;118336.50;;;-144.97;44.15
42415;BME280;28058;46.344;17.786;2023-05-02T10:39:35;118336.50;;;-144.97;43.41
42415;BME280;28058;46.344;17.786;2023-05-02T10:42:04;118336.50;;;-144.97;42.83
42415;BME280;28058;46.344;17.786;2023-05-02T10:46:59;118336.50;;;-144.97;45.23
42415;BME280;28058;46.344;17.786;2023-05-02T10:49:27;118336.50;;;-144.97;44.62
42415;BME280;28058;46.344;17.786;2023-05-02T10:51:55;118336.50;;;-144.97;43.13
42415;BME280;28058;46.344;17.786;2023-05-02T10:54:23;118336.50;;;-144.97;43.67
42415;BME280;28058;46.344;17.786;2023-05-02T10:57:03;118336.50;;;-144.97;43.33
42415;BME280;28058;46.344;17.786;2023-05-02T10:59:35;118336.50;;;-144.97;42.12
42415;BME280;28058;46.344;17.786;2023-05-02T11:02:49;118336.50;;;-144.97;43.51
42415;BME280;28058;46.344;17.786;2023-05-02T11:05:01;118336.50;;;-144.97;42.89
42415;BME280;28058;46.344;17.786;2023-05-02T11:07:31;118336.50;;;-144.97;41.88
42415;BME280;28058;46.344;17.786;2023-05-02T11:10:25;118336.50;;;-144.97;40.98
42415;BME280;28058;46.344;17.786;2023-05-02T11:12:57;118336.50;;;-144.97;41.37
42415;BME280;28058;46.344;17.786;2023-05-02T11:18:00;118336.50;;;-144.97;43.48
42415;BME280;28058;46.344;17.786;2023-05-02T11:20:30;118336.50;;;-144.97;41.94
42415;BME280;28058;46.344;17.786;2023-05-02T11:25:52;118336.50;;;-144.97;42.60
42415;BME280;28058;46.344;17.786;2023-05-02T11:28:40;118336.50;;;-144.97;41.25
42415;BME280;28058;46.344;17.786;2023-05-02T11:31:54;118336.50;;;-144.97;43.79
42415;BME280;28058;46.344;17.786;2023-05-02T11:34:01;118336.50;;;-144.97;47.05
42415;BME280;28058;46.344;17.786;2023-05-02T11:36:32;118336.50;;;-144.97;45.88
42415;BME280;28058;46.344;17.786;2023-05-02T11:39:00;118336.50;;;-144.97;44.21
42415;BME280;28058;46.344;17.786;2023-05-02T11:41:41;118336.50;;;-144.97;43.75
42415;BME280;28058;46.344;17.786;2023-05-02T11:44:08;118336.50;;;-144.97;44.38
42415;BME280;28058;46.344;17.786;2023-05-02T11:46:36;118336.50;;;-144.97;43.61
42415;BME280;28058;46.344;17.786;2023-05-02T11:49:05;118336.50;;;-144.97;44.76
42415;BME280;28058;46.344;17.786;2023-05-02T11:51:35;118336.50;;;-144.97;44.18
42415;BME280;28058;46.344;17.786;2023-05-02T11:54:03;118336.50;;;-144.97;45.01
42415;BME280;28058;46.344;17.786;2023-05-02T11:56:33;118336.50;;;-144.97;47.15
42415;BME280;28058;46.344;17.786;2023-05-02T11:59:01;118336.50;;;-144.97;47.15
42415;BME280;28058;46.344;17.786;2023-05-02T12:01:29;118336.50;;;-144.97;45.95
42415;BME280;28058;46.344;17.786;2023-05-02T12:04:06;118336.50;;;-144.97;45.06
42415;BME280;28058;46.344;17.786;2023-05-02T12:06:34;118336.50;;;-144.97;47.39
42415;BME280;28058;46.344;17.786;2023-05-02T12:09:14;118336.50;;;-144.97;47.15
42415;BME280;28058;46.344;17.786;2023-05-02T12:11:51;118336.50;;;-144.97;45.72
42415;BME280;28058;46.344;17.786;2023-05-02T12:14:28;118336.50;;;-144.97;46.18
42415;BME280;28058;46.344;17.786;2023-05-02T12:16:57;118336.50;;;-144.97;47.51
42415;BME280;28058;46.344;17.786;2023-05-02T12:19:25;118336.50;;;-144.97;47.62
42415;BME280;28058;46.344;17.786;2023-05-02T12:21:52;118336.50;;;-144.97;50.21
42415;BME280;28058;46.344;17.786;2023-05-02T12:24:20;118336.50;;;-144.97;50.02
42415;BME280;28058;46.344;17.786;2023-05-02T12:26:47;118336.50;;;-144.97;48.83
42415;BME280;28058;46.344;17.786;2023-05-02T12:29:16;118336.50;;;-144.97;49.52
42415;BME280;28058;46.344;17.786;2023-05-02T12:31:50;118336.50;;;-144.97;49.68
42415;BME280;28058;46.344;17.786;2023-05-02T12:34:32;118336.50;;;-144.97;48.67
42415;BME280;28058;46.344;17.786;2023-05-02T12:36:58;118336.50;;;-144.97;51.05
42415;BME280;28058;46.344;17.786;2023-05-02T12:39:41;118336.50;;;-144.97;51.29
42415;BME280;28058;46.344;17.786;2023-05-02T12:42:12;118336.50;;;-144.97;53.65
42415;BME280;28058;46.344;17.786;2023-05-02T12:44:44;118336.50;;;-144.97;53.16
42415;BME280;28058;46.344;17.786;2023-05-02T12:47:14;118336.50;;;-144.97;53.44
42415;BME280;28058;46.344;17.786;2023-05-02T12:52:17;118336.50;;;-144.97;56.10
42415;BME280;28058;46.344;17.786;2023-05-02T12:54:45;118336.50;;;-144.97;57.68
42415;BME280;28058;46.344;17.786;2023-05-02T12:57:25;118336.50;;;-144.97;61.38
42415;BME280;28058;46.344;17.786;2023-05-02T12:59:52;118336.50;;;-144.97;61.63
42415;BME280;28058;46.344;17.786;2023-05-02T13:02:20;118336.50;;;-144.97;65.67
42415;BME280;28058;46.344;17.786;2023-05-02T13:04:48;118336.50;;;-144.97;66.46